createdAt,value
2019-06-20T04:00:22.696Z,3.80
2019-06-20T04:01:28.385Z,3.98
2019-06-20T04:02:33.502Z,3.55
2019-06-20T04:03:39.196Z,4.30
2019-06-20T04:04:44.265Z,3.25
2019-06-20T04:05:50.005Z,3.17
2019-06-20T04:06:55.190Z,2.77
2019-06-20T04:08:00.876Z,3.40
2019-06-20T04:09:06.688Z,2.90
2019-06-20T04:10:12.685Z,5.25
2019-06-20T04:11:17.757Z,4.90
2019-06-20T04:12:23.518Z,3.95
2019-06-20T04:13:28.602Z,4.28
2019-06-20T04:14:34.295Z,6.22
2019-06-20T04:15:39.397Z,5.60
2019-06-20T04:16:45.032Z,5.08
2019-06-20T04:17:50.235Z,3.70
2019-06-20T04:18:56.880Z,3.87
2019-06-20T04:20:01.885Z,3.62
2019-06-20T04:21:07.590Z,3.47
2019-06-20T04:22:12.695Z,4.53
2019-06-20T04:23:18.381Z,4.53
2019-06-20T04:24:23.456Z,5.25
2019-06-20T04:25:29.124Z,4.05
2019-06-20T04:26:34.282Z,5.10
2019-06-20T04:27:39.966Z,4.28
2019-06-20T04:28:45.034Z,4.10
2019-06-20T04:29:50.723Z,5.67
2019-06-20T04:30:55.724Z,4.40
2019-06-20T04:32:01.342Z,5.22
2019-06-20T04:33:06.504Z,4.60
2019-06-20T04:34:12.160Z,4.05
2019-06-20T04:35:18.253Z,6.45
2019-06-20T04:36:23.939Z,4.90
2019-06-20T04:37:28.993Z,5.45
2019-06-20T04:38:34.575Z,4.53
2019-06-20T04:39:39.690Z,5.20
2019-06-20T04:40:45.337Z,4.50
2019-06-20T04:41:50.413Z,8.78
2019-06-20T04:42:56.119Z,6.58
2019-06-20T04:44:01.206Z,5.70
2019-06-20T04:45:38.343Z,7.65
2019-06-20T04:46:48.751Z,5.20
2019-06-20T04:47:54.452Z,6.95
2019-06-20T04:48:59.501Z,4.87
2019-06-20T04:50:05.847Z,5.78
2019-06-20T04:51:10.853Z,4.50
2019-06-20T04:52:16.438Z,5.25
2019-06-20T04:53:21.643Z,6.65
2019-06-20T04:54:27.241Z,4.05
2019-06-20T04:55:32.378Z,4.40
2019-06-20T04:56:38.161Z,7.30
2019-06-20T04:57:43.174Z,4.37
2019-06-20T04:58:48.868Z,5.05
2019-06-20T05:00:02.237Z,5.42
2019-06-20T05:01:07.940Z,4.28
2019-06-20T05:02:15.031Z,4.62
2019-06-20T05:03:20.456Z,4.50
2019-06-20T05:04:25.488Z,4.67
2019-06-20T05:05:31.137Z,5.28
2019-06-20T05:06:36.314Z,8.78
2019-06-20T05:07:42.088Z,6.47
2019-06-20T05:08:47.160Z,5.70
2019-06-20T05:09:52.748Z,5.15
2019-06-20T05:10:57.770Z,4.97
2019-06-20T05:12:03.414Z,4.83
2019-06-20T05:13:09.672Z,5.17
2019-06-20T05:14:15.275Z,4.30
2019-06-20T05:15:20.303Z,5.92
2019-06-20T05:16:26.073Z,7.47
2019-06-20T05:17:31.088Z,5.30
2019-06-20T05:18:36.866Z,4.28
2019-06-20T05:19:41.974Z,5.03
2019-06-20T05:20:47.557Z,8.25
2019-06-20T05:21:52.651Z,6.40
2019-06-20T05:22:58.268Z,7.05
2019-06-20T05:24:03.387Z,5.25
2019-06-20T05:25:09.427Z,10.75
2019-06-20T05:26:14.572Z,4.87
2019-06-20T05:27:20.253Z,5.37
2019-06-20T05:28:25.293Z,5.78
2019-06-20T05:29:30.900Z,5.33
2019-06-20T05:30:36.114Z,5.70
2019-06-20T05:31:42.932Z,5.42
2019-06-20T05:32:47.995Z,4.80
2019-06-20T05:33:53.641Z,5.25
2019-06-20T05:35:02.055Z,4.75
2019-06-20T05:36:05.992Z,5.30
2019-06-20T05:37:11.154Z,5.62
2019-06-20T05:38:17.723Z,5.58
2019-06-20T05:39:22.815Z,6.60
2019-06-20T05:40:28.535Z,4.90
2019-06-20T05:41:33.549Z,6.15
2019-06-20T05:42:40.265Z,4.95
2019-06-20T05:43:45.293Z,5.25
2019-06-20T05:44:50.924Z,6.00
2019-06-20T05:46:09.026Z,5.22
2019-06-20T05:47:12.584Z,5.00
2019-06-20T05:48:10.044Z,7.53
2019-06-20T05:49:15.727Z,4.65
2019-06-20T05:50:20.805Z,5.00
2019-06-20T05:51:26.497Z,7.05
2019-06-20T05:52:31.607Z,6.45
2019-06-20T05:53:37.349Z,4.50
2019-06-20T05:54:43.535Z,4.50
2019-06-20T05:55:50.414Z,4.78
2019-06-20T05:56:55.666Z,4.70
2019-06-20T05:58:01.408Z,8.43
2019-06-20T05:59:06.505Z,6.03
2019-06-20T06:00:12.225Z,4.67
2019-06-20T06:01:17.339Z,6.05
2019-06-20T06:02:22.924Z,5.72
2019-06-20T06:03:28.034Z,6.22
2019-06-20T06:04:33.759Z,3.50
2019-06-20T06:05:38.867Z,3.60
2019-06-20T06:06:44.549Z,3.27
2019-06-20T06:07:49.707Z,3.22
2019-06-20T06:08:55.388Z,3.25
2019-06-20T06:10:03.874Z,3.98
2019-06-20T06:11:07.710Z,4.40
2019-06-20T06:12:12.781Z,3.02
2019-06-20T06:13:18.445Z,3.45
2019-06-20T06:14:23.529Z,4.35
2019-06-20T06:15:28.932Z,3.00
2019-06-20T06:16:35.035Z,2.67
2019-06-20T06:17:40.635Z,4.12
2019-06-20T06:18:45.680Z,3.65
2019-06-20T06:19:51.369Z,2.08
2019-06-20T06:20:56.410Z,3.72
2019-06-20T06:22:02.037Z,2.40
2019-06-20T06:23:07.070Z,5.25
2019-06-20T06:24:12.870Z,2.25
2019-06-20T06:25:18.153Z,3.45
2019-06-20T06:26:23.828Z,2.47
2019-06-20T06:27:29.054Z,2.62
2019-06-20T06:28:34.639Z,2.17
2019-06-20T06:29:39.679Z,2.20
2019-06-20T06:30:45.335Z,2.87
2019-06-20T06:31:50.353Z,2.22
2019-06-20T06:32:56.001Z,1.98
2019-06-20T06:34:01.058Z,2.20
2019-06-20T06:35:07.699Z,1.67
2019-06-20T06:36:13.131Z,2.67
2019-06-20T06:37:18.775Z,2.45
2019-06-20T06:38:23.957Z,1.47
2019-06-20T06:39:29.657Z,2.77
2019-06-20T06:40:34.781Z,1.75
2019-06-20T06:41:40.480Z,1.57
2019-06-20T06:42:45.649Z,1.32
2019-06-20T06:43:51.241Z,1.75
2019-06-20T06:44:56.272Z,2.20
2019-06-20T06:46:01.947Z,1.57
2019-06-20T06:47:07.078Z,1.90
2019-06-20T06:48:12.711Z,2.17
2019-06-20T06:49:17.775Z,2.92
2019-06-20T06:50:23.687Z,1.60
2019-06-20T06:51:28.832Z,1.82
2019-06-20T06:52:34.586Z,1.87
2019-06-20T06:53:39.711Z,1.87
2019-06-20T06:54:45.477Z,1.47
2019-06-20T06:55:50.528Z,2.75
2019-06-20T06:56:56.158Z,1.80
2019-06-20T06:58:01.210Z,2.40
2019-06-20T06:59:07.003Z,1.55
2019-06-20T07:00:13.228Z,2.05
2019-06-20T07:01:18.828Z,3.02
2019-06-20T07:02:23.943Z,1.95
2019-06-20T07:03:29.812Z,1.85
2019-06-20T07:04:34.927Z,1.65
2019-06-20T07:05:40.619Z,1.57
2019-06-20T07:06:45.890Z,1.55
2019-06-20T07:07:51.709Z,4.35
2019-06-20T07:08:56.743Z,2.58
2019-06-20T07:10:02.373Z,1.75
2019-06-20T07:11:07.602Z,2.47
2019-06-20T07:12:13.207Z,1.67
2019-06-20T07:13:18.465Z,1.17
2019-06-20T07:14:24.154Z,3.45
2019-06-20T07:15:30.831Z,3.37
2019-06-20T07:16:36.517Z,4.67
2019-06-20T07:17:41.598Z,1.35
2019-06-20T07:18:47.321Z,1.50
2019-06-20T07:19:52.475Z,1.70
2019-06-20T07:20:58.339Z,1.40
2019-06-20T07:22:03.414Z,2.35
2019-06-20T07:23:09.157Z,1.87
2019-06-20T07:24:14.342Z,1.82
2019-06-20T07:25:19.995Z,1.62
2019-06-20T07:26:25.043Z,2.02
2019-06-20T07:27:30.819Z,1.77
2019-06-20T07:28:35.889Z,2.47
2019-06-20T07:29:41.511Z,1.40
2019-06-20T07:30:46.668Z,2.40
2019-06-20T07:31:52.357Z,2.12
2019-06-20T07:32:57.453Z,1.50
2019-06-20T07:34:03.283Z,1.55
2019-06-20T07:35:08.781Z,2.15
2019-06-20T07:36:14.434Z,3.75
2019-06-20T07:37:19.530Z,2.02
2019-06-20T07:38:25.461Z,1.55
2019-06-20T07:39:30.591Z,1.60
2019-06-20T07:40:36.326Z,2.75
2019-06-20T07:41:41.334Z,1.57
2019-06-20T07:42:46.951Z,1.72
2019-06-20T07:43:52.087Z,1.85
2019-06-20T07:44:57.687Z,1.35
2019-06-20T07:46:03.367Z,2.45
2019-06-20T07:47:17.464Z,1.45
2019-06-20T07:48:15.982Z,1.90
2019-06-20T07:49:22.733Z,2.25
2019-06-20T07:50:27.873Z,2.47
2019-06-20T07:51:33.581Z,2.45
2019-06-20T07:52:38.606Z,2.20
2019-06-20T07:53:45.295Z,1.60
2019-06-20T07:54:50.361Z,2.12
2019-06-20T07:55:56.056Z,2.00
2019-06-20T07:57:01.162Z,1.65
2019-06-20T07:58:07.061Z,1.90
2019-06-20T07:59:12.251Z,1.80
2019-06-20T08:00:18.272Z,1.57
2019-06-20T08:01:23.547Z,2.40
2019-06-20T08:02:29.315Z,1.70
2019-06-20T08:03:34.426Z,1.27
2019-06-20T08:04:40.191Z,1.90
2019-06-20T08:05:45.646Z,3.30
2019-06-20T08:06:51.557Z,1.20
2019-06-20T08:07:56.744Z,2.30
2019-06-20T08:09:02.342Z,2.00
2019-06-20T08:10:10.010Z,3.43
2019-06-20T08:11:15.724Z,1.20
2019-06-20T08:12:20.919Z,1.53
2019-06-20T08:13:26.574Z,1.70
2019-06-20T08:14:31.814Z,3.85
2019-06-20T08:15:37.483Z,1.70
2019-06-20T08:16:42.692Z,1.70
2019-06-20T08:17:48.372Z,1.65
2019-06-20T08:18:53.593Z,2.17
2019-06-20T08:20:00.304Z,1.60
2019-06-20T08:21:05.422Z,2.00
2019-06-20T08:22:11.122Z,1.67
2019-06-20T08:23:16.232Z,2.00
2019-06-20T08:24:23.065Z,1.90
2019-06-20T08:25:28.153Z,2.10
2019-06-20T08:26:33.811Z,1.70
2019-06-20T08:27:51.501Z,2.42
2019-06-20T08:29:10.290Z,2.80
2019-06-20T08:30:05.195Z,1.70
2019-06-20T08:31:11.102Z,3.72
2019-06-20T08:32:16.313Z,1.80
2019-06-20T08:33:21.941Z,2.20
2019-06-20T08:34:27.009Z,1.85
2019-06-20T08:35:36.555Z,1.98
2019-06-20T08:36:41.640Z,2.30
2019-06-20T08:37:47.465Z,3.37
2019-06-20T08:38:52.640Z,1.45
2019-06-20T08:39:58.474Z,1.62
2019-06-20T08:41:04.537Z,2.35
2019-06-20T08:42:10.487Z,2.98
2019-06-20T08:43:15.667Z,2.37
2019-06-20T08:44:21.432Z,1.72
2019-06-20T08:45:28.124Z,4.47
2019-06-20T08:46:33.941Z,1.65
2019-06-20T08:47:39.049Z,2.95
2019-06-20T08:48:44.810Z,1.90
2019-06-20T08:49:49.870Z,1.80
2019-06-20T08:50:56.780Z,1.55
2019-06-20T08:52:03.457Z,1.82
2019-06-20T08:53:10.292Z,1.62
2019-06-20T08:54:15.400Z,2.05
2019-06-20T08:55:21.286Z,1.32
2019-06-20T08:56:26.487Z,2.00
2019-06-20T08:57:32.139Z,3.25
2019-06-20T08:58:37.265Z,1.77
2019-06-20T08:59:42.988Z,1.72
2019-06-20T09:00:49.493Z,1.82
2019-06-20T09:01:57.980Z,2.00
2019-06-20T09:04:08.710Z,1.47
2019-06-20T09:05:15.478Z,1.60
2019-06-20T09:06:21.217Z,2.13
2019-06-20T09:07:26.257Z,3.10
2019-06-20T09:08:31.856Z,2.33
2019-06-20T09:09:36.978Z,1.50
2019-06-20T09:10:43.055Z,1.70
2019-06-20T09:11:48.184Z,1.73
2019-06-20T09:12:55.089Z,2.10
2019-06-20T09:14:01.487Z,1.30
2019-06-20T09:15:07.409Z,2.80
2019-06-20T09:16:24.132Z,2.20
2019-06-20T09:17:19.911Z,1.77
2019-06-20T09:18:25.065Z,2.08
2019-06-20T09:19:30.669Z,2.40
2019-06-20T09:20:36.477Z,1.80
2019-06-20T09:21:42.064Z,2.47
2019-06-20T09:22:47.223Z,1.90
2019-06-20T09:23:54.134Z,3.60
2019-06-20T09:25:00.730Z,2.20
2019-06-20T09:26:06.781Z,2.08
2019-06-20T09:27:11.860Z,1.50
2019-06-20T09:28:17.580Z,1.40
2019-06-20T09:29:22.681Z,1.55
2019-06-20T09:30:30.058Z,2.08
2019-06-20T09:31:35.197Z,1.42
2019-06-20T09:32:40.822Z,1.70
2019-06-20T09:33:45.891Z,2.45
2019-06-20T09:34:52.957Z,1.85
2019-06-20T09:35:59.568Z,1.60
2019-06-20T09:37:05.388Z,1.98
2019-06-20T09:38:10.526Z,1.50
2019-06-20T09:39:16.193Z,2.53
2019-06-20T09:40:22.603Z,1.83
2019-06-20T09:41:28.238Z,2.23
2019-06-20T09:42:33.310Z,1.50
2019-06-20T09:43:38.978Z,2.57
2019-06-20T09:44:44.026Z,1.43
2019-06-20T09:45:51.398Z,1.50
2019-06-20T09:46:58.224Z,2.27
2019-06-20T09:48:03.972Z,1.60
2019-06-20T09:49:10.164Z,1.50
2019-06-20T09:50:17.275Z,1.30
2019-06-20T09:51:22.305Z,1.72
2019-06-20T09:52:28.981Z,1.42
2019-06-20T09:53:34.141Z,2.17
2019-06-20T09:54:39.837Z,1.75
2019-06-20T09:55:44.883Z,1.82
2019-06-20T09:56:53.496Z,2.50
2019-06-20T09:57:58.299Z,2.60
2019-06-20T09:59:04.110Z,1.85
2019-06-20T10:00:10.753Z,2.20
2019-06-20T10:01:17.774Z,1.55
2019-06-20T10:02:22.760Z,2.10
2019-06-20T10:03:28.437Z,2.62
2019-06-20T10:04:33.613Z,1.45
2019-06-20T10:05:39.238Z,2.02
2019-06-20T10:06:44.364Z,2.27
2019-06-20T10:07:50.374Z,2.70
2019-06-20T10:08:56.530Z,2.62
2019-06-20T10:10:02.647Z,2.22
2019-06-20T10:11:07.739Z,1.75
2019-06-20T10:12:13.527Z,2.40
2019-06-20T10:13:18.660Z,1.95
2019-06-20T10:14:24.648Z,2.25
2019-06-20T10:15:32.091Z,2.00
2019-06-20T10:16:45.869Z,2.27
2019-06-20T10:17:45.728Z,1.75
2019-06-20T10:18:52.198Z,3.65
2019-06-20T10:19:57.423Z,1.80
2019-06-20T10:21:03.398Z,2.33
2019-06-20T10:22:08.450Z,2.33
2019-06-20T10:23:14.060Z,5.78
2019-06-20T10:24:19.184Z,2.95
2019-06-20T10:25:25.210Z,2.95
2019-06-20T10:26:30.349Z,3.50
2019-06-20T10:27:36.004Z,2.55
2019-06-20T10:28:41.133Z,2.10
2019-06-20T10:29:47.573Z,3.52
2019-06-20T10:30:53.661Z,5.05
2019-06-20T10:32:10.861Z,4.00
2019-06-20T10:33:16.126Z,3.83
2019-06-20T10:34:21.885Z,4.37
2019-06-20T10:35:27.138Z,3.12
2019-06-20T10:36:32.837Z,2.45
2019-06-20T10:37:38.110Z,3.80
2019-06-20T10:38:44.859Z,3.90
2019-06-20T10:39:51.989Z,4.05
2019-06-20T10:40:59.887Z,4.20
2019-06-20T10:42:07.043Z,5.60
2019-06-20T10:43:12.748Z,3.52
2019-06-20T10:44:17.882Z,4.87
2019-06-20T10:45:25.588Z,2.95
2019-06-20T10:46:30.701Z,3.20
2019-06-20T10:47:36.446Z,3.45
2019-06-20T10:48:43.078Z,2.80
2019-06-20T10:49:50.408Z,3.10
2019-06-20T10:50:57.705Z,2.35
2019-06-20T10:52:03.414Z,8.58
2019-06-20T10:53:08.522Z,2.80
2019-06-20T10:54:15.358Z,2.50
2019-06-20T10:55:22.149Z,4.10
2019-06-20T10:56:27.755Z,2.98
2019-06-20T10:57:32.919Z,3.77
2019-06-20T10:58:41.479Z,5.15
2019-06-20T10:59:46.530Z,3.22
2019-06-20T11:00:53.552Z,3.20
2019-06-20T11:01:58.654Z,4.25
2019-06-20T11:03:04.264Z,4.03
2019-06-20T11:04:09.450Z,4.30
2019-06-20T11:05:16.512Z,4.92
2019-06-20T11:06:21.707Z,4.72
2019-06-20T11:07:27.852Z,4.72
2019-06-20T11:08:33.020Z,4.35
2019-06-20T11:09:40.166Z,4.30
2019-06-20T11:10:45.546Z,5.83
2019-06-20T11:11:51.183Z,4.35
2019-06-20T11:12:56.569Z,5.40
2019-06-20T11:14:02.522Z,4.08
2019-06-20T11:15:08.189Z,4.65
2019-06-20T11:16:13.982Z,3.30
2019-06-20T11:17:19.254Z,10.23
2019-06-20T11:18:24.861Z,6.10
2019-06-20T11:19:29.878Z,4.35
2019-06-20T11:20:35.517Z,4.30
2019-06-20T11:21:41.608Z,4.40
2019-06-20T11:22:47.934Z,3.90
2019-06-20T11:23:53.576Z,3.85
2019-06-20T11:24:59.309Z,3.20
2019-06-20T11:26:04.464Z,3.60
2019-06-20T11:27:10.194Z,3.30
2019-06-20T11:28:15.444Z,4.08
2019-06-20T11:29:21.159Z,5.20
2019-06-20T11:30:27.714Z,3.58
2019-06-20T11:31:33.461Z,3.30
2019-06-20T11:32:41.004Z,5.10
2019-06-20T11:33:46.824Z,5.85
2019-06-20T11:34:51.929Z,4.95
2019-06-20T11:35:57.725Z,4.10
2019-06-20T11:37:02.843Z,4.15
2019-06-20T11:38:08.559Z,3.77
2019-06-20T11:39:13.660Z,5.30
2019-06-20T11:40:20.186Z,10.30
2019-06-20T11:41:25.221Z,3.95
2019-06-20T11:42:30.870Z,4.15
2019-06-20T11:43:38.387Z,5.25
2019-06-20T11:44:44.190Z,5.55
2019-06-20T11:45:49.295Z,5.60
2019-06-20T11:46:54.993Z,5.83
2019-06-20T11:48:00.129Z,8.63
2019-06-20T11:49:06.701Z,21.57
2019-06-20T11:50:12.382Z,23.77
2019-06-20T11:51:18.106Z,9.10
2019-06-20T11:52:23.265Z,12.82
2019-06-20T11:53:28.940Z,9.65
2019-06-20T11:54:36.011Z,5.95
2019-06-20T11:55:41.919Z,13.05
2019-06-20T11:56:47.962Z,12.88
2019-06-20T11:57:53.630Z,14.03
2019-06-20T11:58:58.725Z,9.95
2019-06-20T12:00:04.802Z,10.25
2019-06-20T12:01:09.997Z,10.00
2019-06-20T12:02:15.735Z,8.80
2019-06-20T12:03:20.909Z,7.08
2019-06-20T12:04:26.619Z,10.65
2019-06-20T12:05:31.656Z,9.15
2019-06-20T12:06:38.438Z,7.87
2019-06-20T12:07:45.583Z,7.50
2019-06-20T12:08:51.495Z,5.97
2019-06-20T12:09:56.647Z,10.08
2019-06-20T12:11:02.341Z,5.15
2019-06-20T12:12:07.441Z,5.40
2019-06-20T12:13:13.153Z,5.20
2019-06-20T12:14:20.004Z,7.08
2019-06-20T12:15:25.695Z,4.33
2019-06-20T12:16:30.806Z,5.28
2019-06-20T12:17:36.523Z,4.50
2019-06-20T12:18:43.137Z,4.10
2019-06-20T12:19:48.894Z,5.12
2019-06-20T12:20:54.021Z,4.70
2019-06-20T12:21:59.794Z,4.35
2019-06-20T12:23:04.848Z,4.22
2019-06-20T12:24:10.513Z,4.15
2019-06-20T12:25:17.381Z,7.92
2019-06-20T12:26:23.065Z,5.10
2019-06-20T12:27:28.229Z,4.58
2019-06-20T12:28:34.964Z,3.30
2019-06-20T12:29:40.596Z,6.00
2019-06-20T12:30:48.306Z,3.70
2019-06-20T12:31:55.984Z,3.30
2019-06-20T12:33:02.057Z,8.00
2019-06-20T12:34:07.215Z,3.58
2019-06-20T12:35:13.112Z,3.33
2019-06-20T12:36:18.249Z,3.75
2019-06-20T12:37:23.889Z,4.58
2019-06-20T12:38:28.992Z,4.75
2019-06-20T12:39:34.720Z,4.50
2019-06-20T12:40:41.334Z,2.90
2019-06-20T12:41:47.559Z,4.83
2019-06-20T12:42:52.758Z,5.65
2019-06-20T12:43:58.348Z,3.47
2019-06-20T12:45:03.495Z,8.33
2019-06-20T12:46:09.136Z,4.47
2019-06-20T12:47:14.189Z,5.55
2019-06-20T12:48:19.911Z,9.40
2019-06-20T12:49:25.292Z,11.55
2019-06-20T12:50:31.010Z,4.92
2019-06-20T12:51:37.344Z,14.28
2019-06-20T12:52:45.934Z,5.67
2019-06-20T12:53:52.347Z,17.15
2019-06-20T12:54:59.207Z,9.20
2019-06-20T12:56:04.323Z,8.40
2019-06-20T12:57:10.096Z,5.97
2019-06-20T12:58:15.291Z,5.85
2019-06-20T12:59:20.985Z,6.62
2019-06-20T13:00:27.040Z,9.35
2019-06-20T13:01:38.176Z,7.20
2019-06-20T13:02:40.420Z,8.35
2019-06-20T13:03:47.992Z,7.67
2019-06-20T13:04:53.212Z,6.92
2019-06-20T13:05:58.859Z,9.48
2019-06-20T13:07:03.983Z,9.75
2019-06-20T13:08:13.329Z,9.60
2019-06-20T13:09:16.637Z,10.23
2019-06-20T13:10:23.122Z,8.85
2019-06-20T13:11:29.254Z,10.90
2019-06-20T13:12:34.883Z,12.65
2019-06-20T13:13:40.553Z,6.75
2019-06-20T14:03:22.343Z,7.58
2019-06-20T14:04:27.975Z,7.25
2019-06-20T14:05:33.085Z,6.60
2019-06-20T14:06:38.769Z,16.80
2019-06-20T14:07:48.364Z,12.78
2019-06-20T14:08:51.214Z,14.95
2019-06-20T14:09:56.416Z,5.72
2019-06-20T14:11:02.095Z,10.90
2019-06-20T14:12:07.251Z,7.87
2019-06-20T14:13:19.516Z,7.00
2019-06-20T14:14:22.833Z,7.45
2019-06-20T14:15:28.926Z,14.10
2019-06-20T14:16:34.041Z,8.95
2019-06-20T14:17:41.488Z,9.45
2019-06-20T14:18:47.800Z,6.92
2019-06-20T14:19:53.506Z,6.35
2019-06-20T14:20:59.177Z,7.62
2019-06-20T14:22:04.906Z,8.00
2019-06-20T14:23:09.938Z,4.92
2019-06-20T14:24:15.622Z,6.58
2019-06-20T14:25:24.809Z,16.62
2019-06-20T14:26:30.472Z,11.95
2019-06-20T14:27:35.711Z,3.35
2019-06-20T14:28:43.060Z,3.45
2019-06-20T14:29:50.782Z,3.00
2019-06-20T14:30:57.857Z,2.70
2019-06-20T14:32:03.172Z,3.17
2019-06-20T14:33:08.834Z,3.20
2019-06-20T14:34:13.876Z,2.77
2019-06-20T14:35:19.869Z,3.00
2019-06-20T14:36:24.921Z,4.28
2019-06-20T14:37:30.538Z,5.80
2019-06-20T14:38:35.691Z,3.95
2019-06-20T14:39:41.619Z,3.27
2019-06-20T14:40:48.225Z,3.30
2019-06-20T14:41:55.184Z,2.90
2019-06-20T14:43:00.330Z,6.30
2019-06-20T14:44:05.974Z,5.53
2019-06-20T14:45:11.062Z,4.22
2019-06-20T14:46:16.664Z,3.77
2019-06-20T14:47:21.737Z,3.00
2019-06-20T14:48:27.693Z,2.45
2019-06-20T14:49:32.796Z,2.30
2019-06-20T14:50:38.794Z,2.40
2019-06-20T14:51:45.386Z,2.75
2019-06-20T14:52:52.188Z,2.40
2019-06-20T14:54:01.231Z,1.90
2019-06-20T14:55:08.025Z,2.10
2019-06-20T14:56:13.098Z,2.00
2019-06-20T14:57:19.057Z,1.80
2019-06-20T14:58:27.317Z,1.50
2019-06-20T14:59:35.401Z,1.32
2019-06-20T15:00:44.756Z,1.60
2019-06-20T15:01:50.644Z,1.72
2019-06-20T15:02:58.422Z,1.80
2019-06-20T15:04:03.195Z,3.08
2019-06-20T15:05:14.431Z,1.30
2019-06-20T15:06:23.676Z,1.87
2019-06-20T15:07:28.704Z,3.85
2019-06-20T15:08:34.382Z,2.08
2019-06-20T15:09:39.505Z,3.35
2019-06-20T15:10:46.539Z,2.08
2019-06-20T15:11:53.153Z,2.27
2019-06-20T15:12:59.033Z,2.45
2019-06-20T15:14:04.248Z,2.80
2019-06-20T15:15:10.166Z,2.10
2019-06-20T15:16:15.201Z,2.33
2019-06-20T15:17:20.880Z,2.02
2019-06-20T15:18:37.265Z,1.75
2019-06-20T15:19:42.937Z,3.25
2019-06-20T15:20:48.711Z,2.35
2019-06-20T15:21:56.515Z,1.85
2019-06-20T15:23:02.873Z,2.58
2019-06-20T15:24:08.441Z,1.60
2019-06-20T15:25:15.060Z,1.85
2019-06-20T15:26:20.666Z,2.60
2019-06-20T15:27:25.729Z,2.05
2019-06-20T15:28:31.349Z,2.08
2019-06-20T15:29:36.365Z,2.20
2019-06-20T15:30:42.043Z,2.05
2019-06-20T15:31:47.678Z,2.30
2019-06-20T15:33:05.905Z,1.82
2019-06-20T15:34:01.316Z,1.67
2019-06-20T15:35:07.296Z,1.90
2019-06-20T15:36:13.419Z,1.82
2019-06-20T15:37:19.035Z,2.08
2019-06-20T15:38:25.026Z,2.37
2019-06-20T15:39:31.407Z,2.00
2019-06-20T15:40:36.920Z,2.40
2019-06-20T15:41:42.649Z,2.33
2019-06-20T15:42:49.597Z,2.25
2019-06-20T15:43:57.594Z,3.27
2019-06-20T15:45:02.978Z,2.10
2019-06-20T15:46:08.702Z,3.33
2019-06-20T15:47:13.830Z,1.98
2019-06-20T15:48:19.480Z,1.98
2019-06-20T15:49:24.835Z,2.27
2019-06-20T15:50:30.496Z,2.55
2019-06-20T15:51:35.592Z,1.70
2019-06-20T15:52:42.355Z,2.30
2019-06-20T15:53:47.357Z,2.30
2019-06-20T15:54:52.982Z,2.45
2019-06-20T15:55:58.019Z,2.00
2019-06-20T15:57:03.694Z,2.22
2019-06-20T15:58:08.749Z,2.15
2019-06-20T15:59:14.358Z,2.42
2019-06-20T16:00:21.284Z,1.92
2019-06-20T16:01:26.921Z,2.20
2019-06-20T16:02:31.993Z,1.85
2019-06-20T16:03:37.616Z,2.00
2019-06-20T16:04:42.631Z,2.05
2019-06-20T16:05:49.316Z,1.85
2019-06-20T16:06:54.548Z,2.20
2019-06-20T16:08:00.292Z,2.00
2019-06-20T16:09:09.087Z,2.37
2019-06-20T16:10:15.664Z,2.40
2019-06-20T16:11:20.871Z,1.55
2019-06-20T16:12:26.614Z,2.42
2019-06-20T16:13:31.626Z,2.25
2019-06-20T16:14:37.274Z,1.90
2019-06-20T16:15:42.358Z,2.15
2019-06-20T16:16:48.052Z,1.77
2019-06-20T16:17:53.213Z,3.45
2019-06-20T16:18:58.933Z,2.10
2019-06-20T16:20:04.233Z,2.00
2019-06-20T16:21:09.922Z,2.30
2019-06-20T16:22:15.063Z,2.62
2019-06-20T16:23:20.681Z,2.10
2019-06-20T16:24:25.808Z,2.47
2019-06-20T16:25:31.542Z,2.47
2019-06-20T16:26:36.671Z,3.50
2019-06-20T16:27:42.299Z,1.85
2019-06-20T16:28:47.376Z,2.15
2019-06-20T16:29:53.025Z,3.42
2019-06-20T16:31:08.392Z,2.90
2019-06-20T16:32:06.731Z,2.12
2019-06-20T16:33:24.173Z,2.17
2019-06-20T16:34:19.182Z,1.77
2019-06-20T16:35:24.282Z,2.62
2019-06-20T16:36:29.924Z,3.62
2019-06-20T16:37:35.022Z,2.50
2019-06-20T16:38:40.657Z,2.55
2019-06-20T16:39:45.744Z,2.25
2019-06-20T16:40:51.459Z,2.22
2019-06-20T16:41:56.496Z,3.77
2019-06-20T16:43:02.257Z,2.55
2019-06-20T16:44:07.277Z,2.83
2019-06-20T16:45:13.242Z,8.78
2019-06-20T16:46:18.332Z,4.87
2019-06-20T16:47:24.048Z,2.87
2019-06-20T16:48:29.278Z,3.95
2019-06-20T16:49:34.937Z,2.95
2019-06-20T16:50:40.342Z,1.75
2019-06-20T16:51:46.017Z,1.75
2019-06-20T16:52:51.035Z,2.52
2019-06-20T16:53:56.633Z,2.33
2019-06-20T16:55:01.736Z,1.98
2019-06-20T16:56:07.414Z,3.05
2019-06-20T16:57:12.574Z,2.30
2019-06-20T16:58:18.299Z,2.12
2019-06-20T16:59:23.338Z,2.40
2019-06-20T17:00:28.943Z,2.15
2019-06-20T17:01:34.108Z,2.22
2019-06-20T17:02:39.818Z,4.12
2019-06-20T17:03:44.854Z,2.00
2019-06-20T17:04:50.621Z,1.95
2019-06-20T17:05:55.923Z,1.80
2019-06-20T17:07:02.779Z,2.25
2019-06-20T17:08:08.138Z,3.67
2019-06-20T17:09:13.883Z,1.60
2019-06-20T17:10:19.959Z,1.95
2019-06-20T17:11:25.977Z,3.55
2019-06-20T17:12:31.328Z,1.95
2019-06-20T17:13:37.486Z,1.60
2019-06-20T17:14:42.702Z,1.67
2019-06-20T17:15:48.390Z,2.02
2019-06-20T17:16:53.573Z,2.17
2019-06-20T17:17:59.304Z,3.05
2019-06-20T17:19:04.402Z,2.30
2019-06-20T17:20:11.157Z,2.37
2019-06-20T17:21:16.189Z,2.58
2019-06-20T17:22:21.865Z,3.60
2019-06-20T17:23:27.091Z,2.10
2019-06-20T17:24:32.732Z,2.47
2019-06-20T17:25:37.749Z,1.92
2019-06-20T17:26:43.364Z,1.50
2019-06-20T17:27:48.396Z,1.92
2019-06-20T17:28:54.006Z,2.30
2019-06-20T17:29:59.124Z,2.27
2019-06-20T17:31:04.783Z,1.60
2019-06-20T17:32:09.796Z,2.02
2019-06-20T17:33:15.396Z,2.00
2019-06-20T17:34:20.426Z,4.22
2019-06-20T17:35:26.142Z,2.10
2019-06-20T17:36:31.241Z,2.10
2019-06-20T17:37:36.866Z,3.83
2019-06-20T17:38:41.913Z,1.80
2019-06-20T17:39:47.571Z,1.92
2019-06-20T17:40:52.722Z,2.05
2019-06-20T17:41:58.617Z,2.85
2019-06-20T17:43:03.953Z,2.42
2019-06-20T17:44:09.616Z,2.58
2019-06-20T17:45:15.313Z,1.77
2019-06-20T17:46:20.908Z,2.12
2019-06-20T17:47:26.040Z,2.08
2019-06-20T17:48:31.650Z,3.17
2019-06-20T17:49:36.769Z,1.92
2019-06-20T17:50:42.437Z,1.60
2019-06-20T17:51:47.551Z,2.05
2019-06-20T17:52:53.237Z,1.55
2019-06-20T17:53:58.339Z,1.95
2019-06-20T17:55:04.044Z,1.92
2019-06-20T17:56:09.128Z,1.65
2019-06-20T17:57:14.832Z,3.37
2019-06-20T17:58:19.843Z,1.75
2019-06-20T17:59:25.549Z,2.52
2019-06-20T18:00:32.322Z,3.00
2019-06-20T18:01:37.885Z,2.70
2019-06-20T18:02:44.135Z,1.67
2019-06-20T18:03:49.774Z,1.70
2019-06-20T18:04:54.975Z,1.40
2019-06-20T18:06:00.633Z,1.90
2019-06-20T18:07:06.779Z,2.17
2019-06-20T18:08:15.463Z,2.08
2019-06-20T18:09:19.209Z,1.77
2019-06-20T18:10:25.026Z,3.10
2019-06-20T18:11:30.071Z,1.80
2019-06-20T18:12:35.726Z,2.00
2019-06-20T18:13:40.840Z,2.00
2019-06-20T18:14:46.452Z,1.87
2019-06-20T18:15:51.576Z,2.20
2019-06-20T18:16:57.231Z,1.65
2019-06-20T18:18:02.597Z,1.30
2019-06-20T18:19:08.428Z,1.62
2019-06-20T18:20:13.692Z,2.00
2019-06-20T18:21:19.388Z,1.45
2019-06-20T18:22:24.426Z,1.98
2019-06-20T18:23:30.032Z,1.57
2019-06-20T18:24:35.079Z,1.98
2019-06-20T18:25:41.156Z,1.85
2019-06-20T18:26:46.239Z,1.32
2019-06-20T18:27:51.835Z,2.52
2019-06-20T18:28:56.954Z,1.47
2019-06-20T18:30:02.743Z,2.77
2019-06-20T18:31:07.785Z,3.10
2019-06-20T18:32:13.404Z,2.22
2019-06-20T18:33:18.483Z,3.47
2019-06-20T18:34:30.108Z,1.98
2019-06-20T18:35:31.866Z,1.80
2019-06-20T18:36:37.465Z,1.65
2019-06-20T18:37:42.509Z,1.50
2019-06-20T18:38:48.278Z,2.40
2019-06-20T18:39:53.458Z,1.75
2019-06-20T18:40:59.137Z,1.35
2019-06-20T18:42:04.221Z,2.00
2019-06-20T18:43:09.898Z,1.40
2019-06-20T18:44:14.893Z,2.85
2019-06-20T18:45:20.545Z,2.00
2019-06-20T18:46:25.728Z,2.77
2019-06-20T18:47:31.312Z,2.50
2019-06-20T18:48:36.317Z,2.20
2019-06-20T18:49:41.944Z,2.12
2019-06-20T18:50:47.122Z,2.15
2019-06-20T18:51:53.896Z,1.72
2019-06-20T18:52:59.048Z,1.80
2019-06-20T18:54:04.894Z,3.70
2019-06-20T18:55:10.391Z,2.85
2019-06-20T18:56:16.057Z,2.22
2019-06-20T18:57:21.169Z,2.72
2019-06-20T18:58:26.768Z,2.47
2019-06-20T18:59:32.834Z,2.22
2019-06-20T19:00:38.989Z,2.67
2019-06-20T19:01:44.119Z,2.35
2019-06-20T19:02:49.764Z,2.58
2019-06-20T19:03:54.783Z,3.20
2019-06-20T19:05:00.440Z,1.55
2019-06-20T19:06:05.474Z,2.55
2019-06-20T19:07:11.124Z,2.00
2019-06-20T19:08:16.236Z,1.50
2019-06-20T19:09:21.934Z,2.55
2019-06-20T19:10:27.169Z,5.42
2019-06-20T19:11:32.790Z,2.27
2019-06-20T19:12:38.060Z,1.75
2019-06-20T19:13:44.728Z,1.50
2019-06-20T19:14:49.979Z,1.45
2019-06-20T19:15:55.640Z,3.33
2019-06-20T19:17:00.846Z,2.00
2019-06-20T19:18:06.530Z,3.15
2019-06-20T19:19:11.570Z,2.17
2019-06-20T19:20:17.354Z,2.08
2019-06-20T19:21:22.400Z,1.52
2019-06-20T19:22:28.413Z,2.83
2019-06-20T19:23:33.592Z,1.95
2019-06-20T19:24:39.311Z,2.25